sensor_id;sensor_type;location;lat;lon;timestamp;P1;durP1;ratioP1;P2;durP2;ratioP2
67274;SDS011;55463;52.324;5.122;2023-05-07T00:01:06;35.75;;;23.88;;
67274;SDS011;55463;52.324;5.122;2023-05-07T00:03:32;49.65;;;28.80;;
67274;SDS011;55463;52.324;5.122;2023-05-07T00:05:57;48.40;;;29.48;;
67274;SDS011;55463;52.324;5.122;2023-05-07T00:08:23;42.72;;;27.98;;
67274;SDS011;55463;52.324;5.122;2023-05-07T00:10:48;48.65;;;29.25;;
67274;SDS011;55463;52.324;5.122;2023-05-07T00:13:14;44.28;;;27.80;;
67274;SDS011;55463;52.324;5.122;2023-05-07T00:15:40;38.83;;;25.30;;
67274;SDS011;55463;52.324;5.122;2023-05-07T00:18:05;37.08;;;26.30;;
67274;SDS011;55463;52.324;5.122;2023-05-07T00:20:31;42.75;;;26.63;;
67274;SDS011;55463;52.324;5.122;2023-05-07T00:22:56;25.33;;;19.52;;
67274;SDS011;55463;52.324;5.122;2023-05-07T00:25:21;37.50;;;25.15;;
67274;SDS011;55463;52.324;5.122;2023-05-07T00:27:47;39.97;;;25.05;;
67274;SDS011;55463;52.324;5.122;2023-05-07T00:30:12;41.05;;;24.95;;
67274;SDS011;55463;52.324;5.122;2023-05-07T00:32:38;37.10;;;26.23;;
67274;SDS011;55463;52.324;5.122;2023-05-07T00:35:04;38.33;;;24.10;;
67274;SDS011;55463;52.324;5.122;2023-05-07T00:37:30;31.05;;;20.63;;
67274;SDS011;55463;52.324;5.122;2023-05-07T00:39:56;34.67;;;23.23;;
67274;SDS011;55463;52.324;5.122;2023-05-07T00:42:22;30.08;;;19.77;;
67274;SDS011;55463;52.324;5.122;2023-05-07T00:44:47;32.78;;;22.15;;
67274;SDS011;55463;52.324;5.122;2023-05-07T00:47:12;30.52;;;21.05;;
67274;SDS011;55463;52.324;5.122;2023-05-07T00:49:39;38.78;;;24.45;;
67274;SDS011;55463;52.324;5.122;2023-05-07T00:52:07;27.50;;;19.45;;
67274;SDS011;55463;52.324;5.122;2023-05-07T00:54:36;25.52;;;18.77;;
67274;SDS011;55463;52.324;5.122;2023-05-07T00:57:02;23.40;;;16.73;;
67274;SDS011;55463;52.324;5.122;2023-05-07T00:59:28;23.08;;;17.48;;
67274;SDS011;55463;52.324;5.122;2023-05-07T01:01:54;23.70;;;16.98;;
67274;SDS011;55463;52.324;5.122;2023-05-07T01:04:20;18.23;;;14.77;;
67274;SDS011;55463;52.324;5.122;2023-05-07T01:06:45;20.00;;;13.45;;
67274;SDS011;55463;52.324;5.122;2023-05-07T01:09:12;16.88;;;13.48;;
67274;SDS011;55463;52.324;5.122;2023-05-07T01:11:38;20.02;;;13.95;;
67274;SDS011;55463;52.324;5.122;2023-05-07T01:14:04;14.00;;;11.00;;
67274;SDS011;55463;52.324;5.122;2023-05-07T01:16:30;17.50;;;12.00;;
67274;SDS011;55463;52.324;5.122;2023-05-07T01:18:56;13.05;;;10.75;;
67274;SDS011;55463;52.324;5.122;2023-05-07T01:21:24;18.75;;;13.40;;
67274;SDS011;55463;52.324;5.122;2023-05-07T01:23:51;15.10;;;11.35;;
67274;SDS011;55463;52.324;5.122;2023-05-07T01:26:17;16.73;;;11.00;;
67274;SDS011;55463;52.324;5.122;2023-05-07T01:28:44;17.40;;;12.65;;
67274;SDS011;55463;52.324;5.122;2023-05-07T01:31:10;14.43;;;11.40;;
67274;SDS011;55463;52.324;5.122;2023-05-07T01:33:38;16.08;;;11.07;;
67274;SDS011;55463;52.324;5.122;2023-05-07T01:36:06;14.43;;;10.20;;
67274;SDS011;55463;52.324;5.122;2023-05-07T01:38:33;17.23;;;10.65;;
67274;SDS011;55463;52.324;5.122;2023-05-07T01:41:00;14.43;;;10.95;;
67274;SDS011;55463;52.324;5.122;2023-05-07T01:43:26;13.00;;;11.13;;
67274;SDS011;55463;52.324;5.122;2023-05-07T01:45:52;14.32;;;10.63;;
67274;SDS011;55463;52.324;5.122;2023-05-07T01:48:18;18.65;;;11.07;;
67274;SDS011;55463;52.324;5.122;2023-05-07T01:50:43;15.75;;;11.05;;
67274;SDS011;55463;52.324;5.122;2023-05-07T01:53:09;13.40;;;10.65;;
67274;SDS011;55463;52.324;5.122;2023-05-07T01:55:35;13.10;;;10.63;;
67274;SDS011;55463;52.324;5.122;2023-05-07T01:58:01;13.38;;;10.05;;
67274;SDS011;55463;52.324;5.122;2023-05-07T02:00:27;12.88;;;8.82;;
67274;SDS011;55463;52.324;5.122;2023-05-07T02:02:53;15.35;;;10.18;;
67274;SDS011;55463;52.324;5.122;2023-05-07T02:05:19;13.70;;;9.23;;
67274;SDS011;55463;52.324;5.122;2023-05-07T02:07:44;15.82;;;11.20;;
67274;SDS011;55463;52.324;5.122;2023-05-07T02:10:10;16.33;;;11.63;;
67274;SDS011;55463;52.324;5.122;2023-05-07T02:12:35;14.38;;;10.40;;
67274;SDS011;55463;52.324;5.122;2023-05-07T02:15:01;16.50;;;12.18;;
67274;SDS011;55463;52.324;5.122;2023-05-07T02:17:26;13.15;;;10.15;;
67274;SDS011;55463;52.324;5.122;2023-05-07T02:19:52;16.48;;;11.70;;
67274;SDS011;55463;52.324;5.122;2023-05-07T02:22:18;13.00;;;9.55;;
67274;SDS011;55463;52.324;5.122;2023-05-07T02:24:43;17.00;;;11.02;;
67274;SDS011;55463;52.324;5.122;2023-05-07T02:27:09;13.90;;;8.93;;
67274;SDS011;55463;52.324;5.122;2023-05-07T02:29:35;14.40;;;10.32;;
67274;SDS011;55463;52.324;5.122;2023-05-07T02:32:00;12.07;;;8.73;;
67274;SDS011;55463;52.324;5.122;2023-05-07T02:34:26;11.35;;;8.75;;
67274;SDS011;55463;52.324;5.122;2023-05-07T02:36:52;15.50;;;10.18;;
67274;SDS011;55463;52.324;5.122;2023-05-07T02:39:17;14.18;;;10.55;;
67274;SDS011;55463;52.324;5.122;2023-05-07T02:41:43;16.63;;;10.30;;
67274;SDS011;55463;52.324;5.122;2023-05-07T02:44:09;16.80;;;11.10;;
67274;SDS011;55463;52.324;5.122;2023-05-07T02:46:34;14.27;;;10.75;;
67274;SDS011;55463;52.324;5.122;2023-05-07T02:49:00;15.88;;;10.75;;
67274;SDS011;55463;52.324;5.122;2023-05-07T02:51:25;17.38;;;9.88;;
67274;SDS011;55463;52.324;5.122;2023-05-07T02:53:51;12.23;;;9.45;;
67274;SDS011;55463;52.324;5.122;2023-05-07T02:56:17;14.98;;;10.27;;
67274;SDS011;55463;52.324;5.122;2023-05-07T02:58:42;14.90;;;8.30;;
67274;SDS011;55463;52.324;5.122;2023-05-07T03:01:08;13.85;;;8.27;;
67274;SDS011;55463;52.324;5.122;2023-05-07T03:03:38;11.35;;;9.68;;
67274;SDS011;55463;52.324;5.122;2023-05-07T03:06:04;12.82;;;7.93;;
67274;SDS011;55463;52.324;5.122;2023-05-07T03:08:31;11.07;;;9.00;;
67274;SDS011;55463;52.324;5.122;2023-05-07T03:10:57;11.80;;;9.00;;
67274;SDS011;55463;52.324;5.122;2023-05-07T03:13:22;12.90;;;9.10;;
67274;SDS011;55463;52.324;5.122;2023-05-07T03:15:48;10.13;;;8.50;;
67274;SDS011;55463;52.324;5.122;2023-05-07T03:18:13;16.23;;;10.75;;
67274;SDS011;55463;52.324;5.122;2023-05-07T03:20:39;14.27;;;9.27;;
67274;SDS011;55463;52.324;5.122;2023-05-07T03:23:04;11.60;;;9.43;;
67274;SDS011;55463;52.324;5.122;2023-05-07T03:25:30;19.17;;;10.43;;
67274;SDS011;55463;52.324;5.122;2023-05-07T03:27:56;14.73;;;10.73;;
67274;SDS011;55463;52.324;5.122;2023-05-07T03:30:22;11.18;;;9.55;;
67274;SDS011;55463;52.324;5.122;2023-05-07T03:32:47;19.13;;;11.13;;
67274;SDS011;55463;52.324;5.122;2023-05-07T03:35:13;14.25;;;11.02;;
67274;SDS011;55463;52.324;5.122;2023-05-07T03:37:38;16.23;;;10.88;;
67274;SDS011;55463;52.324;5.122;2023-05-07T03:40:05;16.58;;;11.32;;
67274;SDS011;55463;52.324;5.122;2023-05-07T03:42:31;13.35;;;10.30;;
67274;SDS011;55463;52.324;5.122;2023-05-07T03:44:56;15.07;;;11.40;;
67274;SDS011;55463;52.324;5.122;2023-05-07T03:47:21;13.55;;;9.50;;
67274;SDS011;55463;52.324;5.122;2023-05-07T03:49:47;16.42;;;11.32;;
67274;SDS011;55463;52.324;5.122;2023-05-07T03:52:13;15.95;;;11.93;;
67274;SDS011;55463;52.324;5.122;2023-05-07T03:54:39;15.93;;;11.98;;
67274;SDS011;55463;52.324;5.122;2023-05-07T03:57:04;12.15;;;9.27;;
67274;SDS011;55463;52.324;5.122;2023-05-07T03:59:30;9.95;;;8.48;;
67274;SDS011;55463;52.324;5.122;2023-05-07T04:01:55;13.40;;;9.68;;
67274;SDS011;55463;52.324;5.122;2023-05-07T04:04:21;15.32;;;10.32;;
67274;SDS011;55463;52.324;5.122;2023-05-07T04:06:46;12.88;;;9.13;;
67274;SDS011;55463;52.324;5.122;2023-05-07T04:09:11;14.60;;;9.60;;
67274;SDS011;55463;52.324;5.122;2023-05-07T04:11:37;13.40;;;9.57;;
67274;SDS011;55463;52.324;5.122;2023-05-07T04:14:05;9.32;;;7.20;;
67274;SDS011;55463;52.324;5.122;2023-05-07T04:16:30;11.95;;;8.35;;
67274;SDS011;55463;52.324;5.122;2023-05-07T04:18:56;15.40;;;10.93;;
67274;SDS011;55463;52.324;5.122;2023-05-07T04:21:21;17.58;;;11.20;;
67274;SDS011;55463;52.324;5.122;2023-05-07T04:23:47;12.80;;;9.48;;
67274;SDS011;55463;52.324;5.122;2023-05-07T04:26:13;11.35;;;8.68;;
67274;SDS011;55463;52.324;5.122;2023-05-07T04:28:39;12.95;;;10.25;;
67274;SDS011;55463;52.324;5.122;2023-05-07T04:31:05;16.55;;;10.77;;
67274;SDS011;55463;52.324;5.122;2023-05-07T04:33:31;14.13;;;9.63;;
67274;SDS011;55463;52.324;5.122;2023-05-07T04:35:57;17.90;;;10.00;;
67274;SDS011;55463;52.324;5.122;2023-05-07T04:38:22;18.92;;;10.63;;
67274;SDS011;55463;52.324;5.122;2023-05-07T04:40:48;20.98;;;11.40;;
67274;SDS011;55463;52.324;5.122;2023-05-07T04:43:14;13.52;;;10.25;;
67274;SDS011;55463;52.324;5.122;2023-05-07T04:45:41;13.57;;;10.27;;
67274;SDS011;55463;52.324;5.122;2023-05-07T04:48:06;10.63;;;8.45;;
67274;SDS011;55463;52.324;5.122;2023-05-07T04:50:34;18.02;;;10.95;;
67274;SDS011;55463;52.324;5.122;2023-05-07T04:52:59;19.80;;;11.63;;
67274;SDS011;55463;52.324;5.122;2023-05-07T04:55:25;16.05;;;12.35;;
67274;SDS011;55463;52.324;5.122;2023-05-07T04:57:51;17.50;;;10.75;;
67274;SDS011;55463;52.324;5.122;2023-05-07T05:00:17;20.77;;;12.00;;
67274;SDS011;55463;52.324;5.122;2023-05-07T05:02:44;13.60;;;10.75;;
67274;SDS011;55463;52.324;5.122;2023-05-07T05:05:10;16.80;;;10.52;;
67274;SDS011;55463;52.324;5.122;2023-05-07T05:07:35;17.50;;;12.00;;
67274;SDS011;55463;52.324;5.122;2023-05-07T05:10:01;14.60;;;10.90;;
67274;SDS011;55463;52.324;5.122;2023-05-07T05:12:28;17.17;;;12.18;;
67274;SDS011;55463;52.324;5.122;2023-05-07T05:14:54;15.48;;;11.02;;
67274;SDS011;55463;52.324;5.122;2023-05-07T05:17:19;13.20;;;10.23;;
67274;SDS011;55463;52.324;5.122;2023-05-07T05:19:45;15.98;;;10.88;;
67274;SDS011;55463;52.324;5.122;2023-05-07T05:22:10;16.15;;;11.32;;
67274;SDS011;55463;52.324;5.122;2023-05-07T05:24:36;18.13;;;10.18;;
67274;SDS011;55463;52.324;5.122;2023-05-07T05:27:01;20.70;;;12.02;;
67274;SDS011;55463;52.324;5.122;2023-05-07T05:29:27;17.08;;;10.82;;
67274;SDS011;55463;52.324;5.122;2023-05-07T05:31:52;16.85;;;12.68;;
67274;SDS011;55463;52.324;5.122;2023-05-07T05:34:18;12.25;;;9.88;;
67274;SDS011;55463;52.324;5.122;2023-05-07T05:36:44;16.02;;;10.75;;
67274;SDS011;55463;52.324;5.122;2023-05-07T05:39:10;13.10;;;10.55;;
67274;SDS011;55463;52.324;5.122;2023-05-07T05:41:35;16.33;;;11.18;;
67274;SDS011;55463;52.324;5.122;2023-05-07T05:44:00;19.02;;;10.50;;
67274;SDS011;55463;52.324;5.122;2023-05-07T05:46:26;16.70;;;10.23;;
67274;SDS011;55463;52.324;5.122;2023-05-07T05:48:51;16.02;;;10.63;;
67274;SDS011;55463;52.324;5.122;2023-05-07T05:51:17;16.00;;;10.98;;
67274;SDS011;55463;52.324;5.122;2023-05-07T05:53:42;13.90;;;10.45;;
67274;SDS011;55463;52.324;5.122;2023-05-07T05:56:07;13.25;;;9.80;;
67274;SDS011;55463;52.324;5.122;2023-05-07T05:58:35;21.25;;;11.10;;
67274;SDS011;55463;52.324;5.122;2023-05-07T06:01:01;11.27;;;9.57;;
67274;SDS011;55463;52.324;5.122;2023-05-07T06:03:27;17.00;;;10.68;;
67274;SDS011;55463;52.324;5.122;2023-05-07T06:05:53;19.10;;;11.70;;
67274;SDS011;55463;52.324;5.122;2023-05-07T06:08:18;13.20;;;10.30;;
67274;SDS011;55463;52.324;5.122;2023-05-07T06:10:44;12.52;;;10.45;;
67274;SDS011;55463;52.324;5.122;2023-05-07T06:13:10;14.45;;;11.30;;
67274;SDS011;55463;52.324;5.122;2023-05-07T06:15:35;16.95;;;11.43;;
67274;SDS011;55463;52.324;5.122;2023-05-07T06:18:00;17.25;;;11.98;;
67274;SDS011;55463;52.324;5.122;2023-05-07T06:20:26;15.32;;;12.57;;
67274;SDS011;55463;52.324;5.122;2023-05-07T06:22:51;16.77;;;12.40;;
67274;SDS011;55463;52.324;5.122;2023-05-07T06:25:17;15.50;;;11.65;;
67274;SDS011;55463;52.324;5.122;2023-05-07T06:27:42;15.00;;;12.27;;
67274;SDS011;55463;52.324;5.122;2023-05-07T06:30:08;17.65;;;13.68;;
67274;SDS011;55463;52.324;5.122;2023-05-07T06:32:33;15.00;;;12.40;;
67274;SDS011;55463;52.324;5.122;2023-05-07T06:34:59;18.27;;;13.40;;
67274;SDS011;55463;52.324;5.122;2023-05-07T06:37:24;16.67;;;13.90;;
67274;SDS011;55463;52.324;5.122;2023-05-07T06:39:53;17.55;;;12.90;;
67274;SDS011;55463;52.324;5.122;2023-05-07T06:42:19;18.25;;;11.52;;
67274;SDS011;55463;52.324;5.122;2023-05-07T06:44:44;21.23;;;13.20;;
67274;SDS011;55463;52.324;5.122;2023-05-07T06:47:09;16.45;;;11.32;;
67274;SDS011;55463;52.324;5.122;2023-05-07T06:49:35;16.08;;;13.40;;
67274;SDS011;55463;52.324;5.122;2023-05-07T06:52:00;17.83;;;13.07;;
67274;SDS011;55463;52.324;5.122;2023-05-07T06:54:25;23.67;;;14.77;;
67274;SDS011;55463;52.324;5.122;2023-05-07T06:56:51;21.35;;;14.02;;
67274;SDS011;55463;52.324;5.122;2023-05-07T06:59:16;17.70;;;12.77;;
67274;SDS011;55463;52.324;5.122;2023-05-07T07:01:41;21.65;;;14.57;;
67274;SDS011;55463;52.324;5.122;2023-05-07T07:04:07;17.55;;;13.35;;
67274;SDS011;55463;52.324;5.122;2023-05-07T07:06:32;22.40;;;15.45;;
67274;SDS011;55463;52.324;5.122;2023-05-07T07:08:58;17.75;;;13.60;;
67274;SDS011;55463;52.324;5.122;2023-05-07T07:11:24;17.13;;;14.05;;
67274;SDS011;55463;52.324;5.122;2023-05-07T07:13:50;18.25;;;15.13;;
67274;SDS011;55463;52.324;5.122;2023-05-07T07:16:15;20.08;;;15.02;;
67274;SDS011;55463;52.324;5.122;2023-05-07T07:18:41;24.42;;;14.90;;
67274;SDS011;55463;52.324;5.122;2023-05-07T07:21:07;17.55;;;15.05;;
67274;SDS011;55463;52.324;5.122;2023-05-07T07:23:32;15.55;;;13.27;;
67274;SDS011;55463;52.324;5.122;2023-05-07T07:25:58;14.98;;;13.00;;
67274;SDS011;55463;52.324;5.122;2023-05-07T07:28:23;16.25;;;13.63;;
67274;SDS011;55463;52.324;5.122;2023-05-07T07:30:49;19.23;;;14.55;;
67274;SDS011;55463;52.324;5.122;2023-05-07T07:33:14;16.70;;;14.25;;
67274;SDS011;55463;52.324;5.122;2023-05-07T07:35:40;18.50;;;14.93;;
67274;SDS011;55463;52.324;5.122;2023-05-07T07:38:05;19.55;;;15.27;;
67274;SDS011;55463;52.324;5.122;2023-05-07T07:40:31;21.33;;;14.30;;
67274;SDS011;55463;52.324;5.122;2023-05-07T07:42:56;15.48;;;13.05;;
67274;SDS011;55463;52.324;5.122;2023-05-07T07:45:22;17.60;;;14.25;;
67274;SDS011;55463;52.324;5.122;2023-05-07T07:47:47;16.05;;;14.32;;
67274;SDS011;55463;52.324;5.122;2023-05-07T07:50:13;17.77;;;14.73;;
67274;SDS011;55463;52.324;5.122;2023-05-07T07:52:38;17.75;;;14.80;;
67274;SDS011;55463;52.324;5.122;2023-05-07T07:55:04;19.23;;;14.80;;
67274;SDS011;55463;52.324;5.122;2023-05-07T07:57:30;16.23;;;14.00;;
67274;SDS011;55463;52.324;5.122;2023-05-07T07:59:55;16.35;;;14.55;;
67274;SDS011;55463;52.324;5.122;2023-05-07T08:02:21;16.88;;;14.98;;
67274;SDS011;55463;52.324;5.122;2023-05-07T08:04:46;17.77;;;13.65;;
67274;SDS011;55463;52.324;5.122;2023-05-07T08:07:12;20.33;;;15.00;;
67274;SDS011;55463;52.324;5.122;2023-05-07T08:09:38;16.23;;;14.25;;
67274;SDS011;55463;52.324;5.122;2023-05-07T08:12:04;17.17;;;14.45;;
67274;SDS011;55463;52.324;5.122;2023-05-07T08:14:30;17.13;;;13.55;;
67274;SDS011;55463;52.324;5.122;2023-05-07T08:16:55;15.75;;;13.63;;
67274;SDS011;55463;52.324;5.122;2023-05-07T08:19:21;17.08;;;13.50;;
67274;SDS011;55463;52.324;5.122;2023-05-07T08:21:47;14.15;;;12.65;;
67274;SDS011;55463;52.324;5.122;2023-05-07T08:24:13;14.68;;;13.13;;
67274;SDS011;55463;52.324;5.122;2023-05-07T08:26:39;15.93;;;12.52;;
67274;SDS011;55463;52.324;5.122;2023-05-07T08:29:05;15.02;;;12.98;;
67274;SDS011;55463;52.324;5.122;2023-05-07T08:31:31;17.25;;;14.20;;
67274;SDS011;55463;52.324;5.122;2023-05-07T08:33:57;15.60;;;12.10;;
67274;SDS011;55463;52.324;5.122;2023-05-07T08:36:22;17.40;;;12.75;;
67274;SDS011;55463;52.324;5.122;2023-05-07T08:38:48;16.42;;;12.43;;
67274;SDS011;55463;52.324;5.122;2023-05-07T08:41:14;14.30;;;12.80;;
67274;SDS011;55463;52.324;5.122;2023-05-07T08:43:40;13.13;;;11.73;;
67274;SDS011;55463;52.324;5.122;2023-05-07T08:46:06;13.55;;;12.13;;
67274;SDS011;55463;52.324;5.122;2023-05-07T08:48:34;15.88;;;13.40;;
67274;SDS011;55463;52.324;5.122;2023-05-07T08:51:00;14.50;;;12.63;;
67274;SDS011;55463;52.324;5.122;2023-05-07T08:53:26;18.10;;;12.38;;
67274;SDS011;55463;52.324;5.122;2023-05-07T08:55:52;22.83;;;14.10;;
67274;SDS011;55463;52.324;5.122;2023-05-07T08:58:18;13.70;;;12.30;;
67274;SDS011;55463;52.324;5.122;2023-05-07T09:00:44;14.73;;;12.40;;
67274;SDS011;55463;52.324;5.122;2023-05-07T09:03:09;14.20;;;12.70;;
67274;SDS011;55463;52.324;5.122;2023-05-07T09:05:37;16.10;;;14.48;;
67274;SDS011;55463;52.324;5.122;2023-05-07T09:08:03;13.88;;;12.38;;
67274;SDS011;55463;52.324;5.122;2023-05-07T09:10:32;15.02;;;12.50;;
67274;SDS011;55463;52.324;5.122;2023-05-07T09:12:58;16.65;;;13.68;;
67274;SDS011;55463;52.324;5.122;2023-05-07T09:15:23;14.77;;;13.15;;
67274;SDS011;55463;52.324;5.122;2023-05-07T09:17:49;13.80;;;11.75;;
67274;SDS011;55463;52.324;5.122;2023-05-07T09:20:15;13.95;;;12.43;;
67274;SDS011;55463;52.324;5.122;2023-05-07T09:22:41;13.25;;;11.93;;
67274;SDS011;55463;52.324;5.122;2023-05-07T09:25:07;13.68;;;11.25;;
67274;SDS011;55463;52.324;5.122;2023-05-07T09:27:34;15.93;;;12.10;;
67274;SDS011;55463;52.324;5.122;2023-05-07T09:30:02;14.45;;;11.40;;
67274;SDS011;55463;52.324;5.122;2023-05-07T09:32:28;14.52;;;11.73;;
67274;SDS011;55463;52.324;5.122;2023-05-07T09:34:55;12.82;;;11.52;;
67274;SDS011;55463;52.324;5.122;2023-05-07T09:37:21;13.48;;;12.07;;
67274;SDS011;55463;52.324;5.122;2023-05-07T09:39:47;15.43;;;11.55;;
67274;SDS011;55463;52.324;5.122;2023-05-07T09:42:15;12.18;;;10.88;;
67274;SDS011;55463;52.324;5.122;2023-05-07T09:44:40;14.75;;;12.15;;
67274;SDS011;55463;52.324;5.122;2023-05-07T09:47:10;13.90;;;12.40;;
67274;SDS011;55463;52.324;5.122;2023-05-07T09:49:38;14.85;;;12.90;;
67274;SDS011;55463;52.324;5.122;2023-05-07T09:52:07;14.43;;;12.98;;
67274;SDS011;55463;52.324;5.122;2023-05-07T09:54:34;12.80;;;11.43;;
67274;SDS011;55463;52.324;5.122;2023-05-07T09:57:03;13.75;;;12.32;;
67274;SDS011;55463;52.324;5.122;2023-05-07T09:59:30;13.82;;;12.35;;
67274;SDS011;55463;52.324;5.122;2023-05-07T10:01:56;11.70;;;10.60;;
67274;SDS011;55463;52.324;5.122;2023-05-07T10:04:23;11.07;;;9.85;;
67274;SDS011;55463;52.324;5.122;2023-05-07T10:06:50;10.93;;;9.82;;
67274;SDS011;55463;52.324;5.122;2023-05-07T10:09:16;13.23;;;11.82;;
67274;SDS011;55463;52.324;5.122;2023-05-07T10:11:42;12.80;;;11.48;;
67274;SDS011;55463;52.324;5.122;2023-05-07T10:14:08;15.18;;;9.50;;
67274;SDS011;55463;52.324;5.122;2023-05-07T10:16:35;11.63;;;10.35;;
67274;SDS011;55463;52.324;5.122;2023-05-07T10:19:02;12.10;;;10.80;;
67274;SDS011;55463;52.324;5.122;2023-05-07T10:21:29;11.32;;;10.05;;
67274;SDS011;55463;52.324;5.122;2023-05-07T10:24:02;12.07;;;9.73;;
67274;SDS011;55463;52.324;5.122;2023-05-07T10:26:31;11.27;;;9.48;;
67274;SDS011;55463;52.324;5.122;2023-05-07T10:29:05;10.90;;;9.18;;
67274;SDS011;55463;52.324;5.122;2023-05-07T10:34:21;12.15;;;9.18;;
67274;SDS011;55463;52.324;5.122;2023-05-07T10:36:51;11.95;;;9.70;;
67274;SDS011;55463;52.324;5.122;2023-05-07T10:39:17;12.88;;;9.63;;
67274;SDS011;55463;52.324;5.122;2023-05-07T10:41:44;14.57;;;9.48;;
67274;SDS011;55463;52.324;5.122;2023-05-07T10:44:10;10.25;;;9.25;;
67274;SDS011;55463;52.324;5.122;2023-05-07T10:46:36;10.85;;;9.65;;
67274;SDS011;55463;52.324;5.122;2023-05-07T10:51:33;11.15;;;8.73;;
67274;SDS011;55463;52.324;5.122;2023-05-07T10:56:34;12.70;;;9.10;;
67274;SDS011;55463;52.324;5.122;2023-05-07T10:59:34;11.35;;;9.93;;
67274;SDS011;55463;52.324;5.122;2023-05-07T11:01:57;12.60;;;9.60;;
67274;SDS011;55463;52.324;5.122;2023-05-07T11:04:29;13.93;;;9.95;;
67274;SDS011;55463;52.324;5.122;2023-05-07T11:15:01;10.02;;;8.43;;
67274;SDS011;55463;52.324;5.122;2023-05-07T11:17:34;10.13;;;8.10;;
67274;SDS011;55463;52.324;5.122;2023-05-07T11:20:16;12.32;;;7.85;;
67274;SDS011;55463;52.324;5.122;2023-05-07T11:22:42;11.73;;;8.20;;
67274;SDS011;55463;52.324;5.122;2023-05-07T11:25:07;9.98;;;7.75;;
67274;SDS011;55463;52.324;5.122;2023-05-07T11:27:33;9.88;;;8.20;;
67274;SDS011;55463;52.324;5.122;2023-05-07T11:29:58;10.18;;;7.85;;
67274;SDS011;55463;52.324;5.122;2023-05-07T11:32:26;9.60;;;7.45;;
67274;SDS011;55463;52.324;5.122;2023-05-07T11:34:54;9.68;;;6.78;;
67274;SDS011;55463;52.324;5.122;2023-05-07T11:37:20;6.30;;;5.65;;
67274;SDS011;55463;52.324;5.122;2023-05-07T11:39:46;10.88;;;5.82;;
67274;SDS011;55463;52.324;5.122;2023-05-07T11:42:32;9.27;;;6.63;;
67274;SDS011;55463;52.324;5.122;2023-05-07T11:44:59;8.52;;;6.60;;
67274;SDS011;55463;52.324;5.122;2023-05-07T11:47:25;10.55;;;7.35;;
67274;SDS011;55463;52.324;5.122;2023-05-07T11:49:51;8.50;;;6.30;;
67274;SDS011;55463;52.324;5.122;2023-05-07T11:52:23;10.02;;;6.60;;
67274;SDS011;55463;52.324;5.122;2023-05-07T11:57:20;8.90;;;6.40;;
67274;SDS011;55463;52.324;5.122;2023-05-07T11:59:45;11.25;;;6.40;;
67274;SDS011;55463;52.324;5.122;2023-05-07T12:02:14;9.00;;;6.45;;
67274;SDS011;55463;52.324;5.122;2023-05-07T12:04:40;8.77;;;6.05;;
67274;SDS011;55463;52.324;5.122;2023-05-07T12:07:11;9.05;;;5.63;;
67274;SDS011;55463;52.324;5.122;2023-05-07T12:09:38;9.05;;;5.30;;
67274;SDS011;55463;52.324;5.122;2023-05-07T12:12:04;7.50;;;4.93;;
67274;SDS011;55463;52.324;5.122;2023-05-07T12:14:29;6.55;;;4.72;;
67274;SDS011;55463;52.324;5.122;2023-05-07T12:16:55;6.32;;;3.97;;
67274;SDS011;55463;52.324;5.122;2023-05-07T12:19:21;6.53;;;4.00;;
67274;SDS011;55463;52.324;5.122;2023-05-07T12:21:46;5.78;;;3.58;;
67274;SDS011;55463;52.324;5.122;2023-05-07T12:24:13;10.07;;;3.15;;
67274;SDS011;55463;52.324;5.122;2023-05-07T12:26:39;7.95;;;3.92;;
67274;SDS011;55463;52.324;5.122;2023-05-07T12:29:06;5.63;;;3.67;;
67274;SDS011;55463;52.324;5.122;2023-05-07T12:31:32;7.10;;;3.45;;
67274;SDS011;55463;52.324;5.122;2023-05-07T12:33:57;7.38;;;3.38;;
67274;SDS011;55463;52.324;5.122;2023-05-07T12:36:22;7.03;;;3.20;;
67274;SDS011;55463;52.324;5.122;2023-05-07T12:38:51;5.85;;;3.35;;
67274;SDS011;55463;52.324;5.122;2023-05-07T12:41:16;6.78;;;3.00;;
67274;SDS011;55463;52.324;5.122;2023-05-07T12:43:43;6.13;;;3.30;;
67274;SDS011;55463;52.324;5.122;2023-05-07T12:46:09;9.00;;;3.72;;
67274;SDS011;55463;52.324;5.122;2023-05-07T12:48:38;10.73;;;4.20;;
67274;SDS011;55463;52.324;5.122;2023-05-07T12:51:08;6.53;;;3.97;;
67274;SDS011;55463;52.324;5.122;2023-05-07T12:53:39;9.40;;;4.10;;
67274;SDS011;55463;52.324;5.122;2023-05-07T12:56:06;6.68;;;3.75;;
67274;SDS011;55463;52.324;5.122;2023-05-07T12:58:35;7.75;;;3.60;;
67274;SDS011;55463;52.324;5.122;2023-05-07T13:01:07;5.78;;;3.13;;
67274;SDS011;55463;52.324;5.122;2023-05-07T13:03:35;7.22;;;3.05;;
67274;SDS011;55463;52.324;5.122;2023-05-07T13:06:03;7.28;;;3.00;;
67274;SDS011;55463;52.324;5.122;2023-05-07T13:08:35;5.97;;;2.80;;
67274;SDS011;55463;52.324;5.122;2023-05-07T13:11:03;7.97;;;2.90;;
67274;SDS011;55463;52.324;5.122;2023-05-07T13:13:30;7.43;;;3.35;;
67274;SDS011;55463;52.324;5.122;2023-05-07T13:15:56;5.15;;;2.40;;
67274;SDS011;55463;52.324;5.122;2023-05-07T13:18:22;4.72;;;2.72;;
67274;SDS011;55463;52.324;5.122;2023-05-07T13:20:47;3.47;;;2.45;;
67274;SDS011;55463;52.324;5.122;2023-05-07T13:23:12;6.30;;;2.90;;
67274;SDS011;55463;52.324;5.122;2023-05-07T13:25:38;6.57;;;3.60;;
67274;SDS011;55463;52.324;5.122;2023-05-07T13:28:03;5.88;;;3.20;;
67274;SDS011;55463;52.324;5.122;2023-05-07T13:30:29;6.88;;;3.17;;
67274;SDS011;55463;52.324;5.122;2023-05-07T13:32:55;6.65;;;3.47;;
67274;SDS011;55463;52.324;5.122;2023-05-07T13:35:21;4.40;;;3.20;;
67274;SDS011;55463;52.324;5.122;2023-05-07T13:37:47;5.90;;;3.53;;
67274;SDS011;55463;52.324;5.122;2023-05-07T13:40:14;6.85;;;3.60;;
67274;SDS011;55463;52.324;5.122;2023-05-07T13:42:40;6.78;;;3.50;;
67274;SDS011;55463;52.324;5.122;2023-05-07T13:45:06;8.45;;;3.90;;
67274;SDS011;55463;52.324;5.122;2023-05-07T13:47:32;8.18;;;4.07;;
67274;SDS011;55463;52.324;5.122;2023-05-07T13:49:57;5.55;;;3.85;;
67274;SDS011;55463;52.324;5.122;2023-05-07T13:52:23;7.22;;;4.35;;
67274;SDS011;55463;52.324;5.122;2023-05-07T13:54:48;6.90;;;4.18;;
67274;SDS011;55463;52.324;5.122;2023-05-07T13:57:14;6.78;;;3.97;;
67274;SDS011;55463;52.324;5.122;2023-05-07T13:59:40;10.18;;;3.72;;
67274;SDS011;55463;52.324;5.122;2023-05-07T14:02:05;7.15;;;4.18;;
67274;SDS011;55463;52.324;5.122;2023-05-07T14:04:31;7.95;;;4.50;;
67274;SDS011;55463;52.324;5.122;2023-05-07T14:06:59;7.25;;;4.50;;
67274;SDS011;55463;52.324;5.122;2023-05-07T14:09:25;7.15;;;4.68;;
67274;SDS011;55463;52.324;5.122;2023-05-07T14:11:50;8.82;;;4.97;;
67274;SDS011;55463;52.324;5.122;2023-05-07T14:14:19;6.57;;;4.45;;
67274;SDS011;55463;52.324;5.122;2023-05-07T14:16:44;8.45;;;4.43;;
67274;SDS011;55463;52.324;5.122;2023-05-07T14:19:10;8.70;;;4.53;;
67274;SDS011;55463;52.324;5.122;2023-05-07T14:21:36;6.65;;;4.72;;
67274;SDS011;55463;52.324;5.122;2023-05-07T14:24:02;6.78;;;4.63;;
67274;SDS011;55463;52.324;5.122;2023-05-07T14:26:27;8.30;;;4.30;;
67274;SDS011;55463;52.324;5.122;2023-05-07T14:28:54;7.10;;;4.30;;
67274;SDS011;55463;52.324;5.122;2023-05-07T14:31:23;6.25;;;4.03;;
67274;SDS011;55463;52.324;5.122;2023-05-07T14:33:49;6.60;;;4.07;;
67274;SDS011;55463;52.324;5.122;2023-05-07T14:36:18;6.22;;;3.97;;
67274;SDS011;55463;52.324;5.122;2023-05-07T14:38:46;11.00;;;5.05;;
67274;SDS011;55463;52.324;5.122;2023-05-07T14:41:11;8.40;;;4.38;;